createdAt,value
2019-04-23T00:02:39.423Z,14.73
2019-04-23T00:05:02.460Z,15.13
2019-04-23T00:07:41.503Z,17.73
2019-04-23T00:10:12.641Z,20.52
2019-04-23T00:15:09.188Z,17.35
2019-04-23T00:17:38.550Z,16.90
2019-04-23T00:20:03.810Z,14.60
2019-04-23T00:22:55.150Z,16.37
2019-04-23T00:28:06.621Z,14.10
2019-04-23T00:33:07.448Z,15.88
2019-04-23T00:35:32.418Z,18.20
2019-04-23T00:38:05.007Z,15.50
2019-04-23T00:40:37.508Z,17.77
2019-04-23T00:42:53.441Z,17.75
2019-04-23T00:45:34.641Z,18.80
2019-04-23T00:47:54.694Z,15.48
2019-04-23T00:50:28.383Z,18.80
2019-04-23T00:53:12.704Z,13.32
2019-04-23T00:55:24.210Z,18.00
2019-04-23T00:57:57.802Z,16.48
2019-04-23T01:03:01.910Z,13.78
2019-04-23T01:05:30.755Z,16.65
2019-04-23T01:07:51.629Z,14.40
2019-04-23T01:10:29.248Z,14.00
2019-04-23T01:12:59.680Z,19.85
2019-04-23T01:15:33.985Z,15.50
2019-04-23T01:18:08.838Z,18.25
2019-04-23T01:20:33.354Z,14.07
2019-04-23T01:22:40.196Z,17.12
2019-04-23T01:25:19.724Z,15.03
2019-04-23T01:28:08.066Z,16.62
2019-04-23T01:30:43.459Z,13.75
2019-04-23T01:33:10.931Z,17.98
2019-04-23T01:35:33.524Z,16.93
2019-04-23T01:38:07.749Z,16.80
2019-04-23T01:40:36.418Z,18.27
2019-04-23T01:43:02.759Z,16.23
2019-04-23T01:45:44.361Z,15.15
2019-04-23T01:47:59.669Z,16.10
2019-04-23T01:50:37.649Z,13.78
2019-04-23T01:53:09.989Z,14.90
2019-04-23T01:55:36.432Z,20.75
2019-04-23T01:58:21.443Z,14.78
2019-04-23T02:00:34.125Z,18.67
2019-04-23T02:03:01.071Z,14.50
2019-04-23T02:08:06.544Z,17.50
2019-04-23T02:10:51.333Z,15.38
2019-04-23T02:13:01.950Z,17.10
2019-04-23T02:15:31.257Z,16.37
2019-04-23T02:18:08.085Z,16.77
2019-04-23T02:20:30.205Z,15.05
2019-04-23T02:28:25.503Z,13.90
2019-04-23T02:33:31.775Z,15.18
2019-04-23T02:43:13.059Z,17.37
2019-04-23T02:45:52.051Z,13.98
2019-04-23T02:50:40.088Z,12.70
2019-04-23T02:53:20.816Z,15.13
2019-04-23T02:58:11.220Z,16.30
2019-04-23T03:00:40.130Z,16.93
2019-04-23T03:03:06.000Z,14.80
2019-04-23T03:05:46.817Z,16.25
2019-04-23T03:08:00.627Z,12.68
2019-04-23T03:10:59.720Z,15.93
2019-04-23T03:13:20.724Z,17.75
2019-04-23T03:15:50.092Z,16.75
2019-04-23T03:18:39.693Z,13.80
2019-04-23T03:21:11.778Z,21.02
2019-04-23T03:23:44.233Z,17.55
2019-04-23T03:26:11.010Z,28.50
2019-04-23T03:28:47.107Z,20.20
2019-04-23T03:43:34.085Z,12.68
2019-04-23T03:46:11.847Z,21.85
2019-04-23T03:48:38.779Z,23.15
2019-04-23T03:50:43.470Z,20.20
2019-04-23T03:53:32.801Z,15.78
2019-04-23T03:58:30.640Z,17.67
2019-04-23T04:00:58.058Z,17.60
2019-04-23T04:03:42.103Z,17.87
2019-04-23T04:08:22.285Z,21.52
2019-04-23T04:10:52.052Z,17.00
2019-04-23T04:13:22.201Z,15.50
2019-04-23T04:28:23.653Z,14.78
2019-04-23T04:30:47.504Z,18.45
2019-04-23T04:33:29.899Z,19.45
2019-04-23T04:35:47.002Z,18.42
2019-04-23T04:40:57.784Z,22.77
2019-04-23T04:45:57.398Z,20.62
2019-04-23T04:48:09.862Z,20.52
2019-04-23T04:50:52.983Z,17.40
2019-04-23T04:53:23.254Z,21.60
2019-04-23T04:55:52.110Z,22.82
2019-04-23T04:58:12.912Z,20.77
2019-04-23T05:00:57.066Z,17.98
2019-04-23T05:08:13.882Z,14.98
2019-04-23T05:10:43.133Z,17.35
2019-04-23T05:15:45.081Z,19.55
2019-04-23T05:20:43.099Z,18.67
2019-04-23T05:25:39.588Z,14.85
2019-04-23T05:28:24.984Z,15.88
2019-04-23T05:30:39.808Z,18.60
2019-04-23T05:38:18.571Z,15.05
2019-04-23T05:43:08.109Z,19.35
2019-04-23T05:45:34.985Z,17.37
2019-04-23T05:48:13.271Z,16.67
2019-04-23T05:50:59.084Z,22.62
2019-04-23T05:53:27.580Z,22.75
2019-04-23T05:55:46.258Z,22.00
2019-04-23T05:58:18.539Z,24.47
2019-04-23T06:00:51.195Z,18.73
2019-04-23T06:03:11.685Z,20.27
2019-04-23T06:08:11.639Z,15.90
2019-04-23T06:10:44.073Z,19.90
2019-04-23T06:13:04.894Z,19.23
2019-04-23T06:15:38.120Z,18.40
2019-04-23T06:18:12.613Z,19.00
2019-04-23T06:20:42.393Z,18.75
2019-04-23T06:23:06.322Z,13.72
2019-04-23T06:28:08.871Z,16.62
2019-04-23T06:30:40.802Z,18.95
2019-04-23T06:33:00.913Z,28.05
2019-04-23T06:35:29.091Z,17.05
2019-04-23T06:40:35.839Z,15.50
2019-04-23T06:43:09.395Z,18.70
2019-04-23T06:45:32.264Z,25.15
2019-04-23T06:48:09.046Z,17.40
2019-04-23T06:50:43.013Z,15.58
2019-04-23T06:53:02.024Z,18.67
2019-04-23T06:55:36.936Z,16.90
2019-04-23T06:58:14.426Z,17.17
2019-04-23T07:00:42.027Z,19.95
2019-04-23T07:03:14.930Z,28.45
2019-04-23T07:06:03.440Z,18.45
2019-04-23T07:08:39.925Z,28.40
2019-04-23T07:11:03.903Z,17.95
2019-04-23T07:13:36.149Z,16.93
2019-04-23T07:16:03.249Z,16.85
2019-04-23T07:18:24.571Z,15.68
2019-04-23T07:20:51.549Z,16.60
2019-04-23T07:23:21.001Z,26.50
2019-04-23T07:25:48.471Z,17.20
2019-04-23T07:28:17.974Z,17.90
2019-04-23T07:30:56.126Z,14.53
2019-04-23T07:33:20.544Z,16.30
2019-04-23T07:35:45.442Z,13.90
2019-04-23T07:38:43.326Z,20.32
2019-04-23T07:41:23.782Z,15.45
2019-04-23T07:44:07.705Z,12.98
2019-04-23T07:46:34.944Z,18.57
2019-04-23T07:48:56.437Z,12.03
2019-04-23T07:51:29.466Z,14.90
2019-04-23T07:54:03.778Z,13.88
2019-04-23T07:56:27.596Z,14.15
2019-04-23T07:58:52.521Z,14.47
2019-04-23T08:01:47.137Z,11.85
2019-04-23T08:03:55.940Z,15.85
2019-04-23T08:06:24.596Z,13.05
2019-04-23T08:08:56.335Z,24.02
2019-04-23T08:11:34.265Z,24.87
2019-04-23T08:21:21.192Z,15.95
2019-04-23T08:24:01.912Z,16.52
2019-04-23T08:26:33.611Z,25.25
2019-04-23T08:31:39.556Z,34.90
2019-04-23T08:34:16.790Z,18.27
2019-04-23T08:36:37.109Z,16.70
2019-04-23T08:38:57.581Z,18.48
2019-04-23T08:41:38.500Z,17.95
2019-04-23T08:44:10.131Z,13.10
2019-04-23T08:46:51.119Z,18.37
2019-04-23T08:49:22.793Z,12.58
2019-04-23T08:54:16.277Z,22.80
2019-04-23T08:56:52.915Z,24.00
2019-04-23T08:59:22.860Z,16.32
2019-04-23T09:01:49.200Z,13.75
2019-04-23T09:04:08.253Z,15.72
2019-04-23T09:06:35.578Z,16.52
2019-04-23T09:09:07.239Z,13.98
2019-04-23T09:11:46.032Z,15.13
2019-04-23T09:13:59.562Z,14.58
2019-04-23T09:16:36.209Z,15.60
2019-04-23T09:19:11.252Z,30.75
2019-04-23T09:21:37.446Z,33.20
2019-04-23T09:24:00.711Z,28.95
2019-04-23T09:26:25.862Z,34.78
2019-04-23T09:28:58.009Z,26.00
2019-04-23T09:32:11.183Z,36.48
2019-04-23T09:34:17.295Z,26.75
2019-04-23T09:37:06.191Z,22.93
2019-04-23T09:39:34.588Z,29.25
2019-04-23T09:42:08.684Z,26.77
2019-04-23T09:44:57.046Z,25.43
2019-04-23T09:47:24.444Z,21.60
2019-04-23T09:49:40.885Z,19.48
2019-04-23T09:52:14.721Z,21.35
2019-04-23T09:54:52.344Z,19.73
2019-04-23T09:57:03.874Z,17.32
2019-04-23T10:02:04.329Z,22.90
2019-04-23T10:04:23.206Z,20.68
2019-04-23T10:06:56.413Z,22.13
2019-04-23T10:09:10.673Z,17.48
2019-04-23T10:11:38.521Z,16.60
2019-04-23T10:14:06.250Z,16.50
2019-04-23T10:16:34.327Z,18.25
2019-04-23T10:19:03.721Z,18.48
2019-04-23T10:21:31.281Z,25.25
2019-04-23T10:23:59.349Z,24.30
2019-04-23T10:26:28.083Z,28.52
2019-04-23T10:29:03.457Z,21.37
2019-04-23T10:31:31.528Z,18.77
2019-04-23T10:34:00.123Z,22.87
2019-04-23T10:36:29.682Z,28.07
2019-04-23T10:39:06.129Z,20.10
2019-04-23T10:41:25.879Z,19.00
2019-04-23T10:43:58.714Z,23.20
2019-04-23T10:46:53.074Z,28.35
2019-04-23T10:54:41.363Z,18.50
2019-04-23T10:57:11.280Z,27.82
2019-04-23T11:02:31.702Z,21.55
2019-04-23T11:04:53.919Z,22.87
2019-04-23T11:07:26.939Z,26.83
2019-04-23T11:09:52.833Z,20.15
2019-04-23T11:12:24.235Z,25.08
2019-04-23T11:17:15.629Z,21.97
2019-04-23T11:22:34.403Z,20.43
2019-04-23T11:32:19.504Z,24.52
2019-04-23T11:34:56.341Z,34.38
2019-04-23T11:37:16.575Z,22.80
2019-04-23T11:39:39.798Z,24.52
2019-04-23T11:42:19.959Z,29.45
2019-04-23T11:44:40.084Z,27.67
2019-04-23T11:50:09.634Z,35.75
2019-04-23T11:52:11.576Z,48.75
2019-04-23T11:54:30.762Z,24.40
2019-04-23T11:57:21.883Z,35.17
2019-04-23T11:59:36.405Z,35.15
2019-04-23T12:01:57.815Z,27.02
2019-04-23T12:04:42.129Z,31.50
2019-04-23T12:09:47.028Z,30.12
2019-04-23T12:12:28.105Z,26.20
2019-04-23T12:14:51.184Z,23.20
2019-04-23T12:17:26.413Z,21.33
2019-04-23T12:37:35.005Z,19.50
2019-04-23T12:40:11.535Z,22.52
2019-04-23T12:42:51.503Z,28.07
2019-04-23T12:45:10.015Z,32.88
2019-04-23T12:47:43.772Z,29.57
2019-04-23T12:57:29.771Z,35.35
2019-04-23T13:00:02.670Z,25.55
2019-04-23T13:02:32.668Z,27.20
2019-04-23T13:04:55.034Z,26.33
2019-04-23T13:07:29.184Z,26.12
2019-04-23T13:14:57.669Z,28.25
2019-04-23T13:17:30.104Z,23.95
2019-04-23T13:19:56.570Z,24.20
2019-04-23T13:22:23.984Z,34.27
2019-04-23T13:24:56.958Z,34.98
2019-04-23T13:27:32.195Z,36.00
2019-04-23T13:29:56.854Z,23.60
2019-04-23T13:32:31.075Z,27.70
2019-04-23T13:35:02.245Z,20.85
2019-04-23T13:37:29.245Z,21.68
2019-04-23T13:42:33.670Z,24.32
2019-04-23T13:44:47.035Z,23.18
2019-04-23T13:47:28.195Z,21.80
2019-04-23T13:49:55.048Z,30.72
2019-04-23T13:52:44.580Z,28.87
2019-04-23T13:57:45.682Z,23.27
2019-04-23T13:59:48.595Z,24.35
2019-04-23T14:02:23.445Z,36.35
2019-04-23T14:04:50.842Z,23.15
2019-04-23T14:09:57.141Z,39.00
2019-04-23T14:12:17.769Z,28.15
2019-04-23T14:19:45.528Z,27.37
2019-04-23T14:22:51.128Z,21.17
2019-04-23T14:24:54.479Z,23.22
2019-04-23T14:27:24.497Z,24.72
2019-04-23T14:34:54.118Z,23.32
2019-04-23T14:37:12.176Z,19.98
2019-04-23T14:42:20.558Z,24.75
2019-04-23T14:44:41.475Z,21.23
2019-04-23T14:49:53.992Z,24.30
2019-04-23T14:52:16.813Z,18.82
2019-04-23T14:55:18.059Z,19.35
2019-04-23T14:57:15.720Z,18.40
2019-04-23T14:59:41.282Z,21.77
2019-04-23T15:02:13.820Z,24.35
2019-04-23T15:04:39.453Z,22.37
2019-04-23T15:07:17.292Z,22.93
2019-04-23T15:12:16.111Z,20.37
2019-04-23T15:14:46.477Z,20.45
2019-04-23T15:17:07.240Z,21.82
2019-04-23T15:24:38.458Z,26.15
2019-04-23T15:29:20.043Z,23.12
2019-04-23T15:34:30.713Z,23.22
2019-04-23T15:40:08.215Z,23.22
2019-04-23T15:44:25.202Z,24.67
2019-04-23T15:47:05.057Z,24.27
2019-04-23T15:49:26.586Z,26.20
2019-04-23T15:52:17.059Z,31.60
2019-04-23T15:54:35.159Z,25.68
2019-04-23T15:57:05.067Z,29.98
2019-04-23T15:59:43.933Z,22.40
2019-04-23T16:01:41.158Z,23.02
2019-04-23T16:03:57.603Z,24.90
2019-04-23T16:06:28.443Z,23.47
2019-04-23T16:09:42.236Z,28.05
2019-04-23T16:11:47.991Z,24.12
2019-04-23T16:20:00.175Z,27.00
2019-04-23T16:22:18.977Z,29.45
2019-04-23T16:24:56.058Z,25.32
2019-04-23T16:27:07.461Z,24.67
2019-04-23T16:29:46.114Z,27.85
2019-04-23T16:32:08.364Z,25.62
2019-04-23T16:37:09.922Z,24.12
2019-04-23T16:39:30.884Z,31.95
2019-04-23T16:44:48.715Z,33.00
2019-04-23T16:47:11.778Z,30.37
2019-04-23T16:49:36.192Z,24.65
2019-04-23T16:52:01.776Z,29.75
2019-04-23T16:54:33.151Z,29.00
2019-04-23T16:59:34.952Z,29.67
2019-04-23T17:02:12.328Z,33.20
2019-04-23T17:07:02.351Z,29.45
2019-04-23T17:09:42.789Z,33.63
2019-04-23T17:12:04.623Z,26.20
2019-04-23T17:14:23.287Z,35.30
2019-04-23T17:16:54.742Z,37.30
2019-04-23T17:19:28.230Z,54.98
2019-04-23T17:21:59.979Z,47.62
2019-04-23T17:24:25.838Z,53.60
2019-04-23T17:27:03.942Z,53.75
2019-04-23T17:31:56.669Z,35.08
2019-04-23T17:37:07.419Z,42.10
2019-04-23T17:39:25.603Z,35.20
2019-04-23T17:42:23.010Z,32.05
2019-04-23T17:44:54.394Z,35.28
2019-04-23T17:47:13.438Z,34.05
2019-04-23T17:49:42.174Z,36.17
2019-04-23T17:52:16.757Z,31.10
2019-04-23T17:54:41.157Z,38.05
2019-04-23T17:57:16.939Z,33.75
2019-04-23T18:00:08.404Z,29.18
2019-04-23T18:04:57.172Z,33.48
2019-04-23T18:07:36.284Z,28.55
2019-04-23T18:09:58.525Z,40.78
2019-04-23T18:12:22.622Z,42.05
2019-04-23T18:14:42.213Z,36.42
2019-04-23T18:17:17.905Z,37.35
2019-04-23T18:19:48.297Z,35.10
2019-04-23T18:22:29.494Z,32.75
2019-04-23T18:27:57.888Z,32.05
2019-04-23T18:30:29.697Z,39.50
2019-04-23T18:35:25.909Z,42.98
2019-04-23T18:37:56.532Z,59.85
2019-04-23T18:40:21.104Z,59.50
2019-04-23T18:42:57.673Z,78.45
2019-04-23T18:45:35.015Z,64.95
2019-04-23T18:47:56.580Z,70.35
2019-04-23T18:50:33.140Z,44.95
2019-04-23T18:53:01.117Z,44.10
2019-04-23T18:55:35.727Z,59.63
2019-04-23T18:57:57.306Z,65.22
2019-04-23T19:00:24.992Z,67.50
2019-04-23T19:05:45.671Z,79.92
2019-04-23T19:08:19.073Z,59.67
2019-04-23T19:10:51.050Z,47.50
2019-04-23T19:13:27.768Z,40.70
2019-04-23T19:15:59.779Z,36.10
2019-04-23T19:18:30.355Z,36.90
2019-04-23T19:21:09.297Z,34.58
2019-04-23T19:23:32.287Z,43.92
2019-04-23T19:25:44.841Z,33.30
2019-04-23T19:28:34.617Z,35.78
2019-04-23T19:30:53.585Z,29.95
2019-04-23T19:33:29.536Z,32.40
2019-04-23T19:36:03.840Z,34.30
2019-04-23T19:43:19.599Z,54.48
2019-04-23T19:45:55.736Z,76.00
2019-04-23T19:48:27.131Z,58.75
2019-04-23T19:56:02.122Z,39.20
2019-04-23T19:58:13.859Z,38.13
2019-04-23T20:01:00.390Z,32.63
2019-04-23T20:05:46.978Z,34.60
2019-04-23T20:08:17.517Z,36.55
2019-04-23T20:10:39.532Z,37.08
2019-04-23T20:13:10.569Z,35.48
2019-04-23T20:15:50.840Z,33.80
2019-04-23T20:18:01.057Z,35.63
2019-04-23T20:20:42.127Z,38.55
2019-04-23T20:22:55.402Z,34.90
2019-04-23T20:26:12.216Z,34.88
2019-04-23T20:31:03.774Z,36.93
2019-04-23T20:32:54.785Z,35.20
2019-04-23T20:36:05.568Z,33.53
2019-04-23T20:41:03.152Z,37.25
2019-04-23T20:43:32.254Z,36.23
2019-04-23T20:46:04.713Z,34.00
2019-04-23T20:48:35.776Z,39.38
2019-04-23T20:50:51.892Z,37.70
2019-04-23T20:53:22.495Z,36.15
2019-04-23T20:56:01.521Z,39.78
2019-04-23T20:58:32.274Z,35.05
2019-04-23T21:03:46.519Z,34.18
2019-04-23T21:06:09.900Z,34.08
2019-04-23T21:09:04.461Z,31.60
2019-04-23T21:10:58.268Z,30.27
2019-04-23T21:13:50.697Z,32.30
2019-04-23T21:15:57.882Z,31.12
2019-04-23T21:18:36.645Z,30.60
2019-04-23T21:20:59.338Z,32.98
2019-04-23T21:23:38.133Z,37.80
2019-04-23T21:25:52.407Z,37.03
2019-04-23T21:28:40.161Z,37.75
2019-04-23T21:31:11.446Z,32.17
2019-04-23T21:33:34.043Z,35.45
2019-04-23T21:36:18.523Z,37.83
2019-04-23T21:39:10.059Z,35.58
2019-04-23T21:41:29.425Z,28.57
2019-04-23T21:51:38.480Z,34.75
2019-04-23T21:58:59.806Z,35.23
2019-04-23T22:01:32.359Z,30.27
2019-04-23T22:06:28.564Z,35.45
2019-04-23T22:11:43.936Z,29.82
2019-04-23T22:13:58.259Z,28.20
2019-04-23T22:19:04.217Z,32.75
2019-04-23T22:21:20.877Z,34.27
2019-04-23T22:23:58.214Z,31.87
2019-04-23T22:26:23.546Z,37.75
2019-04-23T22:28:57.799Z,35.90
2019-04-23T22:34:02.561Z,32.40
2019-04-23T22:38:45.368Z,36.03
2019-04-23T22:41:09.200Z,30.12
2019-04-23T22:43:43.084Z,31.70
2019-04-23T22:49:07.816Z,26.82
2019-04-23T22:54:00.484Z,37.08
2019-04-23T22:56:20.286Z,35.08
2019-04-23T22:59:03.528Z,30.50
2019-04-23T23:03:59.015Z,24.45
2019-04-23T23:06:34.279Z,33.80
2019-04-23T23:09:12.086Z,29.70
2019-04-23T23:11:23.686Z,25.82
2019-04-23T23:14:09.570Z,29.40
2019-04-23T23:16:21.311Z,26.50
2019-04-23T23:18:58.905Z,27.90
2019-04-23T23:24:02.934Z,24.57
2019-04-23T23:26:26.761Z,24.72
2019-04-23T23:28:56.204Z,29.72
2019-04-23T23:33:57.215Z,27.95
2019-04-23T23:36:19.831Z,24.77
2019-04-23T23:43:54.414Z,21.87
2019-04-23T23:48:49.984Z,27.67
2019-04-23T23:51:21.753Z,24.80
2019-04-23T23:54:02.303Z,24.30
2019-04-23T23:56:14.155Z,26.15
2019-04-23T23:58:51.781Z,22.67
